Time;durP1;ratioP1;P1;durP2;ratioP2;P2;SDS_P1;SDS_P2;PMS_P1;PMS_P2;Temp;Humidity;BMP_temperature;BMP_pressure;BME280_temperature;BME280_humidity;BME280_pressure;Samples;Min_cycle;Max_cycle;Signal;HPM_P1;HPM_P2
2023/09/05 00:01:46;;;;;;;3.70;3.40;;;;;;;;;;4994922;28;20238;-75
2023/09/05 00:04:13;;;;;;;5.47;3.50;;;;;;;;;;4995008;28;20338;-75
2023/09/05 00:06:40;;;;;;;3.17;3.00;;;;;;;;;;4995092;28;20207;-75
2023/09/05 00:09:06;;;;;;;3.40;3.17;;;;;;;;;;4994987;28;20211;-74
2023/09/05 00:11:32;;;;;;;3.22;3.08;;;;;;;;;;4994552;28;20711;-75
2023/09/05 00:14:00;;;;;;;4.43;3.30;;;;;;;;;;4994566;28;20299;-75
2023/09/05 00:16:28;;;;;;;3.00;2.88;;;;;;;;;;4995196;28;20206;-75
2023/09/05 00:18:54;;;;;;;2.95;2.70;;;;;;;;;;4994817;28;20601;-75
2023/09/05 00:21:20;;;;;;;2.97;2.80;;;;;;;;;;4994956;28;20234;-75
2023/09/05 00:23:47;;;;;;;3.30;3.10;;;;;;;;;;4995148;28;20211;-75
2023/09/05 00:26:13;;;;;;;3.05;2.85;;;;;;;;;;4994343;28;20223;-76
2023/09/05 00:28:39;;;;;;;3.10;2.90;;;;;;;;;;4994776;28;20578;-75
2023/09/05 00:31:06;;;;;;;3.05;2.92;;;;;;;;;;4994781;28;20223;-75
2023/09/05 00:33:33;;;;;;;3.13;3.03;;;;;;;;;;4994722;28;20199;-75
2023/09/05 00:35:59;;;;;;;3.33;3.03;;;;;;;;;;4994603;28;20674;-75
2023/09/05 00:38:26;;;;;;;3.53;3.22;;;;;;;;;;4994808;28;20532;-75
2023/09/05 00:40:53;;;;;;;3.47;3.28;;;;;;;;;;4994191;28;20203;-75
2023/09/05 00:43:20;;;;;;;3.75;3.25;;;;;;;;;;4992664;28;20290;-75
2023/09/05 00:45:49;;;;;;;3.10;2.90;;;;;;;;;;4998393;28;20254;-75
2023/09/05 00:48:15;;;;;;;4.32;3.20;;;;;;;;;;4998769;28;20255;-75
2023/09/05 00:50:45;;;;;;;4.43;2.40;;;;;;;;;;4994192;28;20207;-75
2023/09/05 00:53:12;;;;;;;2.90;2.78;;;;;;;;;;4994063;28;20207;-75
2023/09/05 00:55:38;;;;;;;4.10;2.83;;;;;;;;;;4994161;28;20203;-75
2023/09/05 00:58:04;;;;;;;2.97;2.70;;;;;;;;;;4993788;28;20211;-75
2023/09/05 01:00:30;;;;;;;2.80;2.70;;;;;;;;;;4994202;28;20210;-75
2023/09/05 01:02:57;;;;;;;3.67;2.42;;;;;;;;;;4993861;28;20234;-75
2023/09/05 01:05:25;;;;;;;4.20;2.70;;;;;;;;;;4994369;28;20223;-76
2023/09/05 01:08:03;;;;;;;2.97;2.80;;;;;;;;;;4994766;28;20199;-75
2023/09/05 01:10:32;;;;;;;2.67;2.50;;;;;;;;;;4994403;28;20273;-75
2023/09/05 01:12:58;;;;;;;2.67;2.47;;;;;;;;;;4993585;28;20218;-75
2023/09/05 01:15:25;;;;;;;2.42;2.33;;;;;;;;;;4993594;28;20206;-75
2023/09/05 01:17:54;;;;;;;2.65;2.55;;;;;;;;;;4993804;28;20203;-75
2023/09/05 01:20:21;;;;;;;2.78;2.60;;;;;;;;;;4994536;28;20239;-75
2023/09/05 01:22:50;;;;;;;2.17;2.08;;;;;;;;;;4994159;28;20282;-75
2023/09/05 01:25:18;;;;;;;2.78;2.67;;;;;;;;;;4993997;28;20250;-75
2023/09/05 01:27:48;;;;;;;3.88;2.65;;;;;;;;;;4993996;28;20225;-75
2023/09/05 01:30:14;;;;;;;2.78;2.67;;;;;;;;;;4994117;28;20661;-75
2023/09/05 01:32:41;;;;;;;2.60;2.50;;;;;;;;;;4993369;28;20318;-75
2023/09/05 01:35:08;;;;;;;3.17;2.58;;;;;;;;;;4993386;28;20199;-75
2023/09/05 01:37:34;;;;;;;2.83;2.63;;;;;;;;;;4993541;28;20218;-75
2023/09/05 01:40:00;;;;;;;3.33;2.75;;;;;;;;;;4993652;28;20210;-75
2023/09/05 01:42:28;;;;;;;2.88;2.70;;;;;;;;;;4992662;28;20715;-75
2023/09/05 01:44:54;;;;;;;4.22;2.60;;;;;;;;;;4993156;28;20226;-75
2023/09/05 01:47:20;;;;;;;2.95;2.72;;;;;;;;;;4993351;28;20203;-76
2023/09/05 01:49:47;;;;;;;2.90;2.60;;;;;;;;;;4993110;28;20226;-75
2023/09/05 01:52:13;;;;;;;3.50;2.40;;;;;;;;;;4992981;28;20223;-73
2023/09/05 01:54:40;;;;;;;2.92;2.53;;;;;;;;;;4993072;28;20214;-74
2023/09/05 01:57:06;;;;;;;2.90;2.70;;;;;;;;;;4992663;28;20693;-74
2023/09/05 01:59:34;;;;;;;2.72;2.58;;;;;;;;;;4992732;28;20675;-74
2023/09/05 02:02:00;;;;;;;2.45;2.22;;;;;;;;;;4992460;28;20237;-74
2023/09/05 02:04:26;;;;;;;2.35;2.35;;;;;;;;;;4992888;28;20206;-74
2023/09/05 02:06:53;;;;;;;2.67;2.58;;;;;;;;;;4992454;28;20566;-74
2023/09/05 02:09:19;;;;;;;2.85;2.65;;;;;;;;;;4992444;28;20234;-75
2023/09/05 02:11:45;;;;;;;5.88;2.40;;;;;;;;;;4992254;28;20227;-74
2023/09/05 02:14:11;;;;;;;3.40;2.63;;;;;;;;;;4992272;28;20203;-74
2023/09/05 02:16:39;;;;;;;3.60;2.55;;;;;;;;;;4992330;28;20204;-74
2023/09/05 02:19:05;;;;;;;2.80;2.60;;;;;;;;;;4992124;28;20206;-74
2023/09/05 02:21:32;;;;;;;5.50;2.42;;;;;;;;;;4992909;28;20600;-75
2023/09/05 02:23:58;;;;;;;2.10;2.00;;;;;;;;;;4992711;28;20207;-74
2023/09/05 02:26:24;;;;;;;2.80;2.70;;;;;;;;;;4992627;28;20257;-74
2023/09/05 02:28:50;;;;;;;3.17;2.88;;;;;;;;;;4992431;28;20207;-74
2023/09/05 02:31:17;;;;;;;3.00;2.80;;;;;;;;;;4992436;28;20231;-74
2023/09/05 02:33:44;;;;;;;3.20;2.90;;;;;;;;;;4992811;28;20551;-75
2023/09/05 02:36:15;;;;;;;4.57;2.70;;;;;;;;;;4992830;28;20666;-74
2023/09/05 02:38:41;;;;;;;2.78;2.63;;;;;;;;;;4993339;28;20206;-74
2023/09/05 02:41:10;;;;;;;6.90;3.00;;;;;;;;;;4992643;28;20226;-74
2023/09/05 02:43:36;;;;;;;3.08;2.88;;;;;;;;;;4992584;28;20226;-74
2023/09/05 02:46:03;;;;;;;3.58;2.60;;;;;;;;;;4992358;28;20234;-74
2023/09/05 02:48:29;;;;;;;3.05;2.70;;;;;;;;;;4992705;28;20290;-74
2023/09/05 02:51:03;;;;;;;2.50;2.40;;;;;;;;;;4992483;28;20230;-74
2023/09/05 02:53:30;;;;;;;2.60;2.38;;;;;;;;;;4992134;28;20206;-74
2023/09/05 02:55:56;;;;;;;3.13;2.80;;;;;;;;;;4992769;28;20219;-73
2023/09/05 02:58:26;;;;;;;2.80;2.70;;;;;;;;;;4992516;28;20705;-73
2023/09/05 03:00:52;;;;;;;3.20;2.88;;;;;;;;;;4992976;28;20293;-73
2023/09/05 03:03:19;;;;;;;2.88;2.67;;;;;;;;;;4992599;28;20203;-74
2023/09/05 03:05:45;;;;;;;2.72;2.63;;;;;;;;;;4992716;28;20230;-73
2023/09/05 03:08:13;;;;;;;3.00;2.63;;;;;;;;;;4992835;28;20218;-75
2023/09/05 03:10:39;;;;;;;4.47;2.63;;;;;;;;;;4992828;28;20210;-74
2023/09/05 03:13:05;;;;;;;2.85;2.65;;;;;;;;;;4992256;28;20250;-74
2023/09/05 03:15:32;;;;;;;4.53;3.25;;;;;;;;;;4992763;28;20206;-74
2023/09/05 03:17:58;;;;;;;2.58;2.47;;;;;;;;;;4992719;28;20206;-74
2023/09/05 03:20:25;;;;;;;2.65;2.28;;;;;;;;;;4992964;28;20210;-74
2023/09/05 03:22:52;;;;;;;2.92;2.67;;;;;;;;;;4991918;28;20227;-74
2023/09/05 03:25:19;;;;;;;3.25;3.05;;;;;;;;;;4992217;28;20207;-74
2023/09/05 03:27:46;;;;;;;2.63;2.53;;;;;;;;;;4992724;28;20210;-74
2023/09/05 03:30:12;;;;;;;2.67;2.45;;;;;;;;;;4992629;28;20215;-73
2023/09/05 03:32:39;;;;;;;2.88;2.70;;;;;;;;;;4994887;28;20230;-73
2023/09/05 03:35:06;;;;;;;2.90;2.70;;;;;;;;;;4996255;28;20203;-75
2023/09/05 03:37:32;;;;;;;6.88;2.78;;;;;;;;;;4996249;28;20199;-74
2023/09/05 03:39:58;;;;;;;2.50;2.40;;;;;;;;;;4995755;28;20286;-74
2023/09/05 03:42:26;;;;;;;2.83;2.60;;;;;;;;;;4995297;28;20230;-74
2023/09/05 03:44:52;;;;;;;2.75;2.55;;;;;;;;;;4996060;28;20215;-74
2023/09/05 03:47:18;;;;;;;2.85;2.65;;;;;;;;;;4995591;28;20734;-74
2023/09/05 03:49:45;;;;;;;4.70;2.50;;;;;;;;;;4995576;28;20203;-74
2023/09/05 03:52:11;;;;;;;3.20;2.90;;;;;;;;;;4995311;28;20227;-74
2023/09/05 03:54:38;;;;;;;4.15;2.42;;;;;;;;;;4995222;28;20207;-75
2023/09/05 03:57:04;;;;;;;2.72;2.53;;;;;;;;;;4998732;28;20214;-74
2023/09/05 03:59:32;;;;;;;2.42;2.33;;;;;;;;;;5001285;28;20199;-74
2023/09/05 04:01:58;;;;;;;2.53;2.40;;;;;;;;;;4996116;28;20274;-74
2023/09/05 04:04:25;;;;;;;2.55;2.35;;;;;;;;;;4995505;28;20287;-75
2023/09/05 04:06:51;;;;;;;3.58;2.70;;;;;;;;;;4995216;28;20592;-75
2023/09/05 04:09:17;;;;;;;2.38;2.22;;;;;;;;;;4995316;28;20210;-74
2023/09/05 04:11:43;;;;;;;3.00;2.80;;;;;;;;;;4995324;28;20222;-74
2023/09/05 04:14:10;;;;;;;2.65;2.45;;;;;;;;;;4995460;28;21014;-75
2023/09/05 04:16:37;;;;;;;2.60;2.40;;;;;;;;;;4995564;28;20245;-74
2023/09/05 04:19:04;;;;;;;2.92;2.47;;;;;;;;;;4995201;28;20207;-74
2023/09/05 04:21:30;;;;;;;2.90;2.70;;;;;;;;;;4994923;28;20234;-74
2023/09/05 04:23:57;;;;;;;2.80;2.60;;;;;;;;;;4994185;28;20203;-62
2023/09/05 04:26:25;;;;;;;2.97;2.30;;;;;;;;;;4994220;28;20718;-62
2023/09/05 04:28:52;;;;;;;2.65;2.47;;;;;;;;;;4994460;28;20751;-62
2023/09/05 04:31:19;;;;;;;5.85;2.85;;;;;;;;;;4994130;28;20223;-62
2023/09/05 04:33:46;;;;;;;2.80;2.60;;;;;;;;;;4994092;28;20678;-62
2023/09/05 04:36:13;;;;;;;2.85;2.45;;;;;;;;;;4994194;28;20203;-62
2023/09/05 04:38:39;;;;;;;2.53;2.40;;;;;;;;;;4994293;28;20207;-62
2023/09/05 04:41:07;;;;;;;4.10;2.45;;;;;;;;;;4994241;28;20230;-62
2023/09/05 04:43:33;;;;;;;2.55;2.45;;;;;;;;;;4993410;28;20206;-62
2023/09/05 04:46:02;;;;;;;3.35;2.25;;;;;;;;;;4994299;28;20215;-61
2023/09/05 04:48:29;;;;;;;3.90;2.70;;;;;;;;;;4994204;28;20203;-62
2023/09/05 04:50:58;;;;;;;3.50;2.92;;;;;;;;;;4993779;28;20234;-62
2023/09/05 04:53:24;;;;;;;3.50;2.80;;;;;;;;;;4993676;28;20242;-62
2023/09/05 04:55:51;;;;;;;5.22;2.72;;;;;;;;;;4993943;28;20262;-62
2023/09/05 04:58:18;;;;;;;3.05;2.80;;;;;;;;;;4993751;28;20211;-62
2023/09/05 05:00:47;;;;;;;3.70;3.40;;;;;;;;;;4993856;28;20210;-62
2023/09/05 05:03:14;;;;;;;3.42;3.13;;;;;;;;;;4993458;28;20563;-62
2023/09/05 05:05:40;;;;;;;3.30;3.00;;;;;;;;;;4993860;28;20207;-62
2023/09/05 05:08:07;;;;;;;4.70;2.38;;;;;;;;;;4993654;28;20207;-63
2023/09/05 05:10:38;;;;;;;3.40;2.70;;;;;;;;;;4991427;28;20211;-62
2023/09/05 05:13:04;;;;;;;3.83;3.00;;;;;;;;;;4970606;28;20230;-63
2023/09/05 05:15:30;;;;;;;4.55;3.33;;;;;;;;;;4985260;28;20541;-63
2023/09/05 05:17:57;;;;;;;3.10;2.90;;;;;;;;;;4979297;28;20202;-62
2023/09/05 05:20:23;;;;;;;4.40;2.78;;;;;;;;;;4968114;28;20806;-63
2023/09/05 05:22:49;;;;;;;3.42;3.13;;;;;;;;;;4974719;28;20603;-64
2023/09/05 05:25:17;;;;;;;3.95;3.65;;;;;;;;;;4973653;28;20203;-63
2023/09/05 05:27:43;;;;;;;3.10;2.80;;;;;;;;;;4968276;28;20231;-63
2023/09/05 05:30:10;;;;;;;3.88;3.28;;;;;;;;;;4977127;28;20207;-63
2023/09/05 05:32:37;;;;;;;3.33;3.08;;;;;;;;;;4987212;28;20227;-62
2023/09/05 05:35:03;;;;;;;3.53;3.30;;;;;;;;;;4974867;28;20676;-62
2023/09/05 05:37:29;;;;;;;3.92;3.20;;;;;;;;;;4968123;28;20223;-63
2023/09/05 05:39:56;;;;;;;3.05;2.85;;;;;;;;;;4967900;28;20302;-63
2023/09/05 05:42:23;;;;;;;7.07;3.42;;;;;;;;;;4968003;28;20224;-63
2023/09/05 05:44:49;;;;;;;4.40;2.90;;;;;;;;;;4967914;28;20219;-61
2023/09/05 05:47:16;;;;;;;5.10;3.00;;;;;;;;;;4967744;28;20278;-63
2023/09/05 05:49:42;;;;;;;4.85;3.15;;;;;;;;;;4967938;28;20266;-63
2023/09/05 05:52:10;;;;;;;3.33;3.00;;;;;;;;;;4967575;28;20223;-64
2023/09/05 05:54:36;;;;;;;6.07;3.20;;;;;;;;;;4967278;28;20212;-63
2023/09/05 05:57:03;;;;;;;4.40;3.25;;;;;;;;;;4967777;28;20290;-63
2023/09/05 05:59:31;;;;;;;4.70;3.60;;;;;;;;;;4968127;28;20211;-63
2023/09/05 06:01:57;;;;;;;5.15;3.25;;;;;;;;;;4967429;28;20269;-63
2023/09/05 06:04:23;;;;;;;3.47;3.13;;;;;;;;;;4967890;28;20615;-64
2023/09/05 06:06:50;;;;;;;4.15;3.70;;;;;;;;;;4977634;28;20474;-63
2023/09/05 06:09:18;;;;;;;7.00;3.53;;;;;;;;;;4987116;28;20211;-63
2023/09/05 06:11:44;;;;;;;3.35;3.10;;;;;;;;;;4986829;28;20653;-64
2023/09/05 06:14:10;;;;;;;3.75;3.45;;;;;;;;;;4986883;28;20214;-63
2023/09/05 06:16:38;;;;;;;14.88;3.53;;;;;;;;;;4986979;28;20219;-63
2023/09/05 06:19:04;;;;;;;3.22;2.92;;;;;;;;;;4986954;28;20214;-63
2023/09/05 06:21:31;;;;;;;4.10;3.40;;;;;;;;;;4986320;28;20238;-62
2023/09/05 06:23:58;;;;;;;2.78;2.58;;;;;;;;;;4967459;28;20279;-60
2023/09/05 06:26:25;;;;;;;3.20;2.92;;;;;;;;;;4986368;28;20223;-61
2023/09/05 06:28:51;;;;;;;4.45;2.25;;;;;;;;;;4986447;28;20241;-60
2023/09/05 06:31:17;;;;;;;2.80;2.67;;;;;;;;;;4969764;28;20227;-61
2023/09/05 06:33:45;;;;;;;4.03;2.47;;;;;;;;;;4967157;28;20215;-61
2023/09/05 06:36:12;;;;;;;2.47;2.20;;;;;;;;;;4967397;28;20215;-63
2023/09/05 06:38:39;;;;;;;2.92;2.72;;;;;;;;;;4967121;28;20207;-63
2023/09/05 06:41:05;;;;;;;2.30;2.20;;;;;;;;;;4969463;28;20802;-61
2023/09/05 06:43:32;;;;;;;4.78;2.10;;;;;;;;;;4970511;28;20270;-61
2023/09/05 06:46:02;;;;;;;4.10;2.50;;;;;;;;;;4968844;28;20621;-61
2023/09/05 06:48:29;;;;;;;2.10;2.00;;;;;;;;;;4968657;28;20314;-60
2023/09/05 06:50:57;;;;;;;1.90;1.80;;;;;;;;;;4968144;28;20232;-62
2023/09/05 06:53:23;;;;;;;2.63;2.50;;;;;;;;;;4967427;28;20207;-61
2023/09/05 06:55:51;;;;;;;2.40;2.30;;;;;;;;;;4967806;28;20219;-61
2023/09/05 06:58:17;;;;;;;1.95;1.83;;;;;;;;;;4968254;28;20618;-62
2023/09/05 07:00:44;;;;;;;2.13;2.03;;;;;;;;;;4968559;28;20203;-63
2023/09/05 07:03:10;;;;;;;2.63;2.08;;;;;;;;;;4968199;28;20266;-64
2023/09/05 07:05:39;;;;;;;2.97;2.15;;;;;;;;;;4969731;28;20207;-62
2023/09/05 07:08:06;;;;;;;5.15;2.20;;;;;;;;;;4972369;28;20719;-62
2023/09/05 07:10:33;;;;;;;2.05;1.95;;;;;;;;;;4974456;28;20487;-63
2023/09/05 07:12:59;;;;;;;1.77;1.75;;;;;;;;;;4972773;28;20785;-64
2023/09/05 07:15:25;;;;;;;2.22;2.13;;;;;;;;;;4972705;28;20212;-64
2023/09/05 07:17:52;;;;;;;2.30;2.13;;;;;;;;;;4976152;28;20214;-64
2023/09/05 07:20:18;;;;;;;2.63;1.80;;;;;;;;;;4971764;28;20257;-62
2023/09/05 07:22:44;;;;;;;2.20;2.00;;;;;;;;;;4971362;28;20252;-62
2023/09/05 07:25:12;;;;;;;2.58;1.90;;;;;;;;;;4971710;28;20215;-65
2023/09/05 07:27:38;;;;;;;2.55;2.35;;;;;;;;;;4972810;28;20239;-65
2023/09/05 07:30:05;;;;;;;3.95;1.92;;;;;;;;;;4966751;28;20699;-64
2023/09/05 07:32:31;;;;;;;2.50;2.30;;;;;;;;;;4972189;28;20227;-64
2023/09/05 07:34:57;;;;;;;2.10;1.77;;;;;;;;;;4971906;28;20306;-64
2023/09/05 07:37:24;;;;;;;2.05;2.00;;;;;;;;;;4971877;28;20211;-65
2023/09/05 07:39:51;;;;;;;1.70;1.60;;;;;;;;;;4972021;28;20214;-64
2023/09/05 07:42:19;;;;;;;2.95;2.08;;;;;;;;;;4972114;28;20231;-64
2023/09/05 07:44:45;;;;;;;3.70;2.17;;;;;;;;;;4971770;28;20216;-65
2023/09/05 07:47:12;;;;;;;2.22;2.00;;;;;;;;;;4972167;28;20223;-64
2023/09/05 07:49:38;;;;;;;2.00;1.90;;;;;;;;;;4972031;28;20207;-65
2023/09/05 07:52:04;;;;;;;4.35;2.08;;;;;;;;;;4971932;28;20231;-65
2023/09/05 07:54:31;;;;;;;1.88;1.77;;;;;;;;;;4971964;28;20211;-65
2023/09/05 07:56:57;;;;;;;1.80;1.70;;;;;;;;;;4972188;28;20262;-65
2023/09/05 07:59:24;;;;;;;2.22;1.75;;;;;;;;;;4971623;28;20215;-65
2023/09/05 08:01:51;;;;;;;5.57;2.47;;;;;;;;;;4972461;28;20234;-65
2023/09/05 08:04:17;;;;;;;2.10;2.00;;;;;;;;;;4971843;28;20676;-63
2023/09/05 08:06:43;;;;;;;5.60;1.90;;;;;;;;;;4974568;28;20596;-63
2023/09/05 08:09:10;;;;;;;2.05;1.92;;;;;;;;;;4968817;28;20207;-63
2023/09/05 08:11:37;;;;;;;4.28;1.88;;;;;;;;;;4968284;28;20239;-62
2023/09/05 08:14:03;;;;;;;3.63;2.05;;;;;;;;;;4968362;28;20211;-64
2023/09/05 08:16:30;;;;;;;2.22;1.65;;;;;;;;;;4968076;28;20215;-64
2023/09/05 08:18:57;;;;;;;2.00;1.80;;;;;;;;;;4967755;28;20461;-61
2023/09/05 08:21:26;;;;;;;3.47;1.90;;;;;;;;;;4967832;28;20224;-62
2023/09/05 08:23:52;;;;;;;3.28;1.80;;;;;;;;;;4968349;28;20219;-61
2023/09/05 08:26:18;;;;;;;3.22;1.67;;;;;;;;;;4968188;28;20211;-64
2023/09/05 08:28:45;;;;;;;3.25;1.90;;;;;;;;;;4968381;28;20223;-62
2023/09/05 08:31:12;;;;;;;1.92;1.83;;;;;;;;;;4967662;28;20624;-62
2023/09/05 08:33:39;;;;;;;1.65;1.55;;;;;;;;;;4967105;28;20274;-65
2023/09/05 08:36:08;;;;;;;3.67;2.00;;;;;;;;;;4967626;28;20750;-62
2023/09/05 08:38:34;;;;;;;1.35;1.35;;;;;;;;;;4969474;28;20634;-63
2023/09/05 08:41:01;;;;;;;3.53;1.40;;;;;;;;;;4968652;28;20223;-63
2023/09/05 08:43:28;;;;;;;2.00;1.60;;;;;;;;;;4967792;28;20316;-62
2023/09/05 08:45:54;;;;;;;2.42;1.90;;;;;;;;;;4967557;28;20218;-61
2023/09/05 08:48:20;;;;;;;1.90;1.75;;;;;;;;;;4966841;28;20250;-63
2023/09/05 08:50:48;;;;;;;4.00;1.52;;;;;;;;;;4966991;28;20688;-62
2023/09/05 08:53:16;;;;;;;1.75;1.65;;;;;;;;;;4967712;28;20215;-62
2023/09/05 08:55:42;;;;;;;1.88;1.52;;;;;;;;;;4967318;28;20215;-62
2023/09/05 08:58:10;;;;;;;1.60;1.60;;;;;;;;;;4967608;28;20247;-62
2023/09/05 09:00:36;;;;;;;1.50;1.50;;;;;;;;;;4966909;28;20298;-63
2023/09/05 09:03:04;;;;;;;2.00;1.90;;;;;;;;;;4966988;28;20215;-62
2023/09/05 09:05:30;;;;;;;3.25;1.58;;;;;;;;;;4967298;28;20207;-62
2023/09/05 09:07:58;;;;;;;1.80;1.70;;;;;;;;;;4986665;28;20317;-61
2023/09/05 09:10:24;;;;;;;1.48;1.48;;;;;;;;;;4982183;28;20226;-62
2023/09/05 09:12:54;;;;;;;2.40;1.77;;;;;;;;;;4966861;28;20230;-63
2023/09/05 09:15:20;;;;;;;1.77;1.50;;;;;;;;;;4967318;28;20675;-63
2023/09/05 09:17:48;;;;;;;1.65;1.60;;;;;;;;;;4967133;28;20831;-63
2023/09/05 09:20:14;;;;;;;3.05;1.33;;;;;;;;;;4966593;28;20211;-64
2023/09/05 09:22:41;;;;;;;3.65;1.73;;;;;;;;;;4966672;28;20227;-65
2023/09/05 09:25:14;;;;;;;4.70;1.55;;;;;;;;;;4967395;28;20209;-64
2023/09/05 09:27:42;;;;;;;4.20;1.50;;;;;;;;;;4966591;28;20365;-65
2023/09/05 09:30:09;;;;;;;2.25;1.63;;;;;;;;;;4966304;28;20207;-65
2023/09/05 09:32:36;;;;;;;4.10;1.48;;;;;;;;;;4967220;28;20234;-64
2023/09/05 09:35:06;;;;;;;1.30;1.20;;;;;;;;;;4966389;28;20211;-64
2023/09/05 09:37:33;;;;;;;3.83;1.30;;;;;;;;;;4967057;28;20203;-65
2023/09/05 09:39:59;;;;;;;1.30;1.20;;;;;;;;;;4966491;28;20223;-62
2023/09/05 09:42:27;;;;;;;1.25;1.25;;;;;;;;;;4966132;28;20711;-62
2023/09/05 09:44:54;;;;;;;2.63;1.33;;;;;;;;;;4966778;28;20219;-63
2023/09/05 09:47:20;;;;;;;1.63;1.52;;;;;;;;;;4968356;28;20233;-63
2023/09/05 09:49:48;;;;;;;2.45;1.52;;;;;;;;;;4966540;28;20223;-64
2023/09/05 09:52:15;;;;;;;1.55;1.45;;;;;;;;;;4965790;28;20754;-64
2023/09/05 09:54:44;;;;;;;2.38;1.50;;;;;;;;;;4965935;28;20310;-65
2023/09/05 09:57:13;;;;;;;1.20;1.20;;;;;;;;;;4964931;28;20219;-65
2023/09/05 09:59:43;;;;;;;3.15;1.60;;;;;;;;;;4965045;28;20211;-64
2023/09/05 10:02:10;;;;;;;2.05;1.35;;;;;;;;;;4965507;28;20235;-65
2023/09/05 10:04:37;;;;;;;3.55;1.63;;;;;;;;;;4965490;28;20737;-64
2023/09/05 10:07:06;;;;;;;1.67;1.60;;;;;;;;;;4965770;28;20211;-65
2023/09/05 10:09:34;;;;;;;1.15;1.15;;;;;;;;;;4966201;28;20222;-65
2023/09/05 10:12:01;;;;;;;3.30;1.50;;;;;;;;;;4965267;28;20249;-66
2023/09/05 10:14:28;;;;;;;2.03;1.20;;;;;;;;;;4966150;28;20214;-66
2023/09/05 10:16:57;;;;;;;1.27;1.25;;;;;;;;;;4965008;28;20219;-65
2023/09/05 10:19:24;;;;;;;1.27;1.17;;;;;;;;;;4965589;28;20207;-65
2023/09/05 10:21:51;;;;;;;1.25;1.13;;;;;;;;;;4965087;28;20234;-66
2023/09/05 10:24:18;;;;;;;1.30;1.30;;;;;;;;;;4965032;28;20211;-66
2023/09/05 10:26:44;;;;;;;3.33;1.02;;;;;;;;;;4965713;28;20696;-66
2023/09/05 10:29:28;;;;;;;2.70;1.20;;;;;;;;;;4965592;28;20315;-65
2023/09/05 10:31:56;;;;;;;2.20;1.40;;;;;;;;;;4965276;28;20290;-66
2023/09/05 10:34:30;;;;;;;1.45;1.35;;;;;;;;;;4965759;28;20635;-65
2023/09/05 10:36:58;;;;;;;1.00;1.00;;;;;;;;;;4965392;28;20210;-65
2023/09/05 10:39:27;;;;;;;2.80;1.20;;;;;;;;;;4965517;28;20203;-65
2023/09/05 10:41:53;;;;;;;1.50;1.27;;;;;;;;;;4971411;28;20234;-66
2023/09/05 10:44:20;;;;;;;1.20;1.15;;;;;;;;;;4971781;28;20215;-66
2023/09/05 10:46:50;;;;;;;1.25;1.20;;;;;;;;;;4972373;28;20215;-65
2023/09/05 10:49:18;;;;;;;2.35;1.35;;;;;;;;;;4971670;28;20229;-66
2023/09/05 10:52:02;;;;;;;3.72;1.20;;;;;;;;;;4971453;28;20235;-66
2023/09/05 10:54:30;;;;;;;2.53;1.17;;;;;;;;;;4972231;28;20221;-66
2023/09/05 10:56:57;;;;;;;1.13;1.10;;;;;;;;;;4972428;28;20705;-65
2023/09/05 10:59:27;;;;;;;1.85;1.20;;;;;;;;;;4971521;28;20728;-66
2023/09/05 11:01:54;;;;;;;4.20;1.13;;;;;;;;;;4971046;28;20318;-66
2023/09/05 11:04:27;;;;;;;4.68;1.30;;;;;;;;;;4972090;28;20210;-66
2023/09/05 11:06:57;;;;;;;1.20;1.20;;;;;;;;;;4972123;28;20207;-66
2023/09/05 11:09:24;;;;;;;3.20;1.50;;;;;;;;;;4972448;28;20239;-66
2023/09/05 11:11:51;;;;;;;1.77;1.35;;;;;;;;;;4972060;28;20734;-66
2023/09/05 11:14:28;;;;;;;3.20;1.30;;;;;;;;;;4971968;28;20211;-66
2023/09/05 11:16:56;;;;;;;2.40;1.25;;;;;;;;;;4971807;28;20217;-66
2023/09/05 11:19:30;;;;;;;1.10;1.10;;;;;;;;;;4971985;28;20218;-66
2023/09/05 11:22:05;;;;;;;3.20;1.27;;;;;;;;;;4971275;28;20306;-66
2023/09/05 11:24:32;;;;;;;1.52;1.17;;;;;;;;;;4971858;28;20221;-66
2023/09/05 11:26:58;;;;;;;1.50;1.40;;;;;;;;;;4971804;28;20207;-66
2023/09/05 11:29:28;;;;;;;1.73;1.33;;;;;;;;;;4971889;28;20234;-66
2023/09/05 11:31:56;;;;;;;1.55;1.27;;;;;;;;;;4971887;28;20231;-66
2023/09/05 11:34:22;;;;;;;1.00;1.00;;;;;;;;;;4971640;28;20214;-66
2023/09/05 11:36:50;;;;;;;1.85;1.20;;;;;;;;;;4971500;28;20211;-67
2023/09/05 11:39:17;;;;;;;8.70;1.60;;;;;;;;;;4971982;28;20210;-66
2023/09/05 11:41:44;;;;;;;3.75;1.42;;;;;;;;;;4971952;28;20238;-66
2023/09/05 11:44:10;;;;;;;2.42;1.20;;;;;;;;;;4971457;28;20215;-66
2023/09/05 11:46:40;;;;;;;2.53;1.50;;;;;;;;;;4971778;28;20206;-66
2023/09/05 11:49:06;;;;;;;3.90;1.50;;;;;;;;;;4971920;28;20223;-67
2023/09/05 11:51:33;;;;;;;1.50;1.40;;;;;;;;;;4969010;28;20234;-66
2023/09/05 11:54:00;;;;;;;3.60;1.40;;;;;;;;;;4967959;28;20561;-66
2023/09/05 11:56:27;;;;;;;1.30;1.20;;;;;;;;;;4969314;28;20207;-66
2023/09/05 11:58:53;;;;;;;1.27;1.20;;;;;;;;;;4972418;28;20207;-66
2023/09/05 12:01:27;;;;;;;1.13;1.00;;;;;;;;;;4968004;28;20278;-66
2023/09/05 12:03:59;;;;;;;2.20;0.90;;;;;;;;;;4968565;28;20218;-66
2023/09/05 12:06:26;;;;;;;1.77;1.30;;;;;;;;;;4958756;28;20207;-67
2023/09/05 12:08:52;;;;;;;2.67;1.10;;;;;;;;;;4969131;28;20230;-67
2023/09/05 12:11:25;;;;;;;3.35;1.13;;;;;;;;;;4968831;28;20467;-67
2023/09/05 12:13:56;;;;;;;1.90;1.13;;;;;;;;;;4968717;28;20794;-66
2023/09/05 12:16:22;;;;;;;1.35;1.17;;;;;;;;;;4968071;28;20222;-64
2023/09/05 12:18:49;;;;;;;1.25;1.10;;;;;;;;;;4972072;28;20694;-65
2023/09/05 12:21:16;;;;;;;2.03;1.00;;;;;;;;;;4967912;28;20237;-66
2023/09/05 12:23:42;;;;;;;1.02;0.95;;;;;;;;;;4967945;28;20223;-64
2023/09/05 12:26:08;;;;;;;1.15;1.00;;;;;;;;;;4968329;28;20223;-64
2023/09/05 12:28:38;;;;;;;1.27;1.17;;;;;;;;;;4968152;28;20231;-63
2023/09/05 12:31:10;;;;;;;2.17;1.30;;;;;;;;;;4967946;28;20401;-66
2023/09/05 12:33:37;;;;;;;1.55;0.80;;;;;;;;;;4967328;28;20274;-65
2023/09/05 12:36:03;;;;;;;2.17;1.00;;;;;;;;;;4968647;28;20211;-63
2023/09/05 12:38:30;;;;;;;1.02;1.00;;;;;;;;;;4967924;28;20675;-64
2023/09/05 12:40:56;;;;;;;1.30;1.20;;;;;;;;;;4967764;28;20640;-64
2023/09/05 12:43:23;;;;;;;2.90;1.00;;;;;;;;;;4967003;28;20309;-64
2023/09/05 12:45:51;;;;;;;1.05;0.88;;;;;;;;;;4967456;28;20313;-64
2023/09/05 12:48:17;;;;;;;0.90;0.90;;;;;;;;;;4967537;28;20215;-65
2023/09/05 12:50:46;;;;;;;1.08;0.93;;;;;;;;;;4967117;28;20207;-64
2023/09/05 12:53:13;;;;;;;1.83;1.00;;;;;;;;;;4967103;28;20265;-64
2023/09/05 12:55:41;;;;;;;5.10;1.30;;;;;;;;;;4966928;28;20215;-65
2023/09/05 12:58:09;;;;;;;2.78;1.00;;;;;;;;;;4966977;28;20222;-65
2023/09/05 13:00:35;;;;;;;3.42;1.30;;;;;;;;;;4967373;28;20238;-65
2023/09/05 13:03:06;;;;;;;1.05;0.90;;;;;;;;;;4966495;28;20207;-64
2023/09/05 13:05:32;;;;;;;1.05;1.05;;;;;;;;;;4966813;28;20219;-64
2023/09/05 13:07:59;;;;;;;1.00;1.00;;;;;;;;;;4978594;28;20208;-65
2023/09/05 13:10:25;;;;;;;0.65;0.65;;;;;;;;;;4966859;28;20652;-64
2023/09/05 13:12:51;;;;;;;0.80;0.80;;;;;;;;;;4966813;28;20286;-63
2023/09/05 13:15:17;;;;;;;0.95;0.90;;;;;;;;;;4966742;28;20215;-63
2023/09/05 13:17:45;;;;;;;0.80;0.80;;;;;;;;;;4966784;28;20207;-64
2023/09/05 13:20:14;;;;;;;1.30;1.20;;;;;;;;;;4966542;28;20211;-62
2023/09/05 13:22:44;;;;;;;5.18;0.98;;;;;;;;;;4965962;28;20227;-64
2023/09/05 13:25:10;;;;;;;0.82;0.80;;;;;;;;;;4966309;28;20215;-63
2023/09/05 13:27:37;;;;;;;1.80;0.85;;;;;;;;;;4966649;28;20718;-63
2023/09/05 13:30:05;;;;;;;0.98;0.98;;;;;;;;;;4966126;28;20230;-63
2023/09/05 13:32:31;;;;;;;1.65;0.70;;;;;;;;;;4966725;28;20262;-63
2023/09/05 13:34:58;;;;;;;2.08;1.00;;;;;;;;;;4966516;28;20305;-63
2023/09/05 13:37:26;;;;;;;2.00;0.95;;;;;;;;;;4966421;28;20681;-63
2023/09/05 13:39:53;;;;;;;1.42;1.02;;;;;;;;;;4966157;28;20933;-74
2023/09/05 13:42:19;;;;;;;2.05;1.05;;;;;;;;;;4966275;28;20297;-73
2023/09/05 13:44:45;;;;;;;1.88;0.80;;;;;;;;;;4966736;28;20221;-74
2023/09/05 13:47:12;;;;;;;0.82;0.82;;;;;;;;;;4967436;28;20716;-74
2023/09/05 13:49:38;;;;;;;1.08;0.73;;;;;;;;;;4966403;28;20223;-74
2023/09/05 13:52:06;;;;;;;1.00;1.00;;;;;;;;;;4966478;28;20231;-74
2023/09/05 13:54:33;;;;;;;0.70;0.70;;;;;;;;;;4966487;28;20203;-74
2023/09/05 13:57:02;;;;;;;2.53;0.80;;;;;;;;;;4966704;28;20227;-75
2023/09/05 13:59:30;;;;;;;2.35;0.80;;;;;;;;;;4966857;28;20207;-74
2023/09/05 14:01:56;;;;;;;1.75;0.77;;;;;;;;;;4966164;28;20758;-74
2023/09/05 14:04:22;;;;;;;1.80;0.88;;;;;;;;;;4966808;28;20218;-74
2023/09/05 14:06:49;;;;;;;0.95;0.80;;;;;;;;;;4978024;28;20218;-74
2023/09/05 14:09:15;;;;;;;2.22;0.80;;;;;;;;;;4966767;28;20329;-74
2023/09/05 14:11:43;;;;;;;0.85;0.85;;;;;;;;;;4966139;28;20409;-74
2023/09/05 14:14:13;;;;;;;0.70;0.70;;;;;;;;;;4966993;28;20210;-74
2023/09/05 14:16:39;;;;;;;2.90;0.80;;;;;;;;;;4965930;28;20239;-74
2023/09/05 14:19:05;;;;;;;1.13;1.00;;;;;;;;;;4966377;28;20211;-74
2023/09/05 14:21:32;;;;;;;0.77;0.77;;;;;;;;;;4966576;28;20601;-73
2023/09/05 14:23:58;;;;;;;0.77;0.77;;;;;;;;;;4966291;28;20234;-74
2023/09/05 14:26:27;;;;;;;2.28;1.00;;;;;;;;;;4967393;28;20211;-74
2023/09/05 14:28:54;;;;;;;0.60;0.60;;;;;;;;;;4966540;28;20610;-74
2023/09/05 14:31:21;;;;;;;0.73;0.73;;;;;;;;;;4966615;28;20234;-74
2023/09/05 14:33:47;;;;;;;0.88;0.88;;;;;;;;;;4966121;28;20222;-74
2023/09/05 14:36:13;;;;;;;1.95;0.70;;;;;;;;;;4966020;28;20584;-74
2023/09/05 14:38:39;;;;;;;0.90;0.90;;;;;;;;;;4966147;28;20222;-74
2023/09/05 14:41:06;;;;;;;2.15;1.05;;;;;;;;;;4967243;28;20231;-74
2023/09/05 14:43:33;;;;;;;1.13;1.13;;;;;;;;;;4966442;28;20215;-73